WADD

Ngurah Rai (Bali) International Airport

Denpasar-Bali Island, Indonesia
TAF WADD 162300Z 1700/1800 27010KT 9999 SCT016 TEMPO 1700/1704 5000 RA FEW015CB BKN015 BECMG 1710/1712 VRB05KT TEMPO 1719/1723 5000 RA BKN015
Issued Valid From Valid To
Jan-16 @ 23:00 UTC
(6 hours ago)
Jan-17 @ 00:00 UTC
(5 hours ago)
Jan-18 @ 00:00 UTC
(in 19 hours)
Jan-17 @ 00:00 to Jan-17 @ 10:00
TAF WADD 162300Z 1700/1800 27010KT 9999 SCT016
Wind Visibility Clouds
270° at 10 knots 10,000+ meters
  • Scattered at 1,600' AGL
Expired Click to View Jan-17 @ 00:00 to Jan-17 @ 04:00
TEMPO 1700/1704 5000 RA FEW015CB BKN015
Visibility Clouds Conditions
5,005 meters
  • Few at 1,500' AGL
  • Broken at 1,500' AGL
  • Rain
Becoming Jan-17 @ 10:00 to Jan-18 @ 00:00
BECMG 1710/1712 VRB05KT
Wind Visibility Clouds
Variable at 5 knots 10,000+ meters
  • Scattered at 1,600' AGL
Temporary Jan-17 @ 19:00 to Jan-17 @ 23:00
TEMPO 1719/1723 5000 RA BKN015
Visibility Clouds Conditions
5,005 meters
  • Broken at 1,500' AGL
  • Rain
TAF WADD 162300Z 1700/1800 27010KT 9999 SCT016 TEMPO 1700/1704 5000 RA FEW015CB BKN015 BECMG 1710/1712 VRB05KT TEMPO 1719/1723 5000 RA BKN015
Issued Jan-16 @ 23:00 UTC
(6 hours ago)
Valid From Jan-17 @ 00:00 UTC
(5 hours ago)
Valid To Jan-18 @ 00:00 UTC
(in 19 hours)
Jan-17 @ 00:00 - Jan-17 @ 10:00
Wind Visibility
270° at 10 knots 10,000+ meters
Clouds
  • Scattered at 1,600' AGL
Jan-17 @ 00:00 - Jan-17 @ 04:00
Clouds
  • Few at 1,500' AGL
  • Broken at 1,500' AGL
Conditions
  • Rain
Becoming Jan-17 @ 10:00 - Jan-18 @ 00:00
Wind Visibility
Variable at 5 knots 10,000+ meters
Clouds
  • Scattered at 1,600' AGL
Temporary Jan-17 @ 19:00 - Jan-17 @ 23:00
Clouds
  • Broken at 1,500' AGL
Conditions
  • Rain